Time;durP1;ratioP1;P1;durP2;ratioP2;P2;SDS_P1;SDS_P2;PMS_P1;PMS_P2;Temp;Humidity;BMP_temperature;BMP_pressure;BME280_temperature;BME280_humidity;BME280_pressure;Samples;Min_cycle;Max_cycle;Signal;HPM_P1;HPM_P2
2023/08/13 00:01:33;;;;;;;9.30;1.77;;;16.60;99.90;;;;;;5068859;28;20476;-81
2023/08/13 00:04:00;;;;;;;12.15;1.88;;;16.60;99.90;;;;;;5055917;28;20048;-82
2023/08/13 00:06:27;;;;;;;14.73;1.67;;;16.60;99.90;;;;;;5078283;28;20140;-81
2023/08/13 00:08:54;;;;;;;11.43;1.60;;;16.70;99.90;;;;;;5055820;28;20087;-82
2023/08/13 00:11:21;;;;;;;7.88;2.13;;;16.70;99.90;;;;;;5055439;28;20107;-81
2023/08/13 00:13:48;;;;;;;12.82;1.90;;;16.70;99.90;;;;;;5062458;28;20132;-81
2023/08/13 00:19:02;;;;;;;10.05;1.63;;;16.70;99.90;;;;;;5083832;28;20120;-81
2023/08/13 00:21:29;;;;;;;8.90;1.50;;;16.70;99.90;;;;;;5055331;28;20040;-82
2023/08/13 00:23:55;;;;;;;11.13;1.77;;;16.70;99.90;;;;;;5068154;28;20102;-82
2023/08/13 00:26:24;;;;;;;7.18;1.75;;;16.70;99.90;;;;;;5063173;28;20048;-82
2023/08/13 00:28:51;;;;;;;10.55;1.90;;;16.70;99.90;;;;;;5063573;28;20048;-81
2023/08/13 00:31:17;;;;;;;6.80;1.77;;;16.70;99.90;;;;;;5082593;28;20048;-81
2023/08/13 00:33:44;;;;;;;10.50;1.83;;;16.70;99.90;;;;;;5073629;28;20049;-82
2023/08/13 00:36:11;;;;;;;7.00;1.38;;;16.70;99.90;;;;;;5067546;28;20037;-81
2023/08/13 00:38:39;;;;;;;9.93;2.28;;;16.70;99.90;;;;;;5066880;28;20040;-81
2023/08/13 00:41:06;;;;;;;7.45;1.58;;;16.70;99.90;;;;;;5054440;28;20053;-82
2023/08/13 00:43:32;;;;;;;9.68;1.77;;;16.70;99.90;;;;;;5056763;28;20052;-82
2023/08/13 00:45:59;;;;;;;12.32;2.15;;;16.60;99.90;;;;;;5039449;28;20452;-82
2023/08/13 00:48:26;;;;;;;10.65;2.00;;;16.70;99.90;;;;;;5052956;28;20048;-81
2023/08/13 00:50:53;;;;;;;5.22;1.25;;;16.60;99.90;;;;;;5082468;28;20050;-83
2023/08/13 00:53:20;;;;;;;6.22;1.40;;;16.70;99.90;;;;;;5053144;28;20045;-82
2023/08/13 00:55:47;;;;;;;6.97;1.50;;;16.70;99.90;;;;;;5053782;28;20380;-81
2023/08/13 00:58:16;;;;;;;10.05;1.48;;;16.60;99.90;;;;;;5054993;28;20083;-82
2023/08/13 01:00:43;;;;;;;8.43;1.40;;;16.60;99.90;;;;;;5054004;28;20048;-82
2023/08/13 01:03:10;;;;;;;6.15;1.55;;;16.60;99.90;;;;;;5069195;28;20068;-81
2023/08/13 01:05:37;;;;;;;8.10;1.60;;;16.60;99.90;;;;;;5053616;28;20052;-81
2023/08/13 01:10:49;;;;;;;7.80;1.60;;;16.50;99.90;;;;;;5095094;28;20058;-82
2023/08/13 01:13:16;;;;;;;9.48;1.98;;;16.50;99.90;;;;;;5054403;28;20464;-81
2023/08/13 01:15:43;;;;;;;10.43;2.00;;;16.50;99.90;;;;;;5053577;28;20045;-82
2023/08/13 01:18:11;;;;;;;12.77;1.73;;;16.50;99.90;;;;;;5053832;28;20045;-82
2023/08/13 01:20:38;;;;;;;5.82;1.50;;;16.40;99.90;;;;;;5052760;28;20033;-82
2023/08/13 01:23:04;;;;;;;11.93;2.13;;;16.40;99.90;;;;;;5064000;28;20041;-82
2023/08/13 01:25:31;;;;;;;8.23;1.75;;;16.40;99.90;;;;;;5062045;28;20041;-82
2023/08/13 01:30:30;;;;;;;8.20;1.75;;;16.40;99.90;;;;;;5083258;28;20052;-82
2023/08/13 01:32:56;;;;;;;6.72;1.42;;;16.30;99.90;;;;;;5052754;28;20448;-82
2023/08/13 01:35:23;;;;;;;6.63;1.70;;;16.30;99.90;;;;;;5067559;28;20479;-82
2023/08/13 01:37:50;;;;;;;12.13;1.80;;;16.30;99.90;;;;;;5082577;28;20058;-81
2023/08/13 01:40:17;;;;;;;10.18;1.50;;;16.30;99.90;;;;;;5061828;28;20058;-82
2023/08/13 01:42:44;;;;;;;5.55;1.55;;;16.20;99.90;;;;;;5038469;28;20037;-81
2023/08/13 01:45:10;;;;;;;12.85;2.75;;;16.20;99.90;;;;;;5059501;28;20048;-82
2023/08/13 01:47:37;;;;;;;8.98;1.63;;;16.20;99.90;;;;;;5043968;28;20072;-82
2023/08/13 01:50:04;;;;;;;9.27;1.50;;;16.20;99.90;;;;;;5026522;28;20046;-82
2023/08/13 01:52:31;;;;;;;8.15;1.77;;;16.10;99.90;;;;;;5020313;28;20057;-82
2023/08/13 01:54:58;;;;;;;7.97;1.45;;;16.10;99.90;;;;;;5031184;28;20507;-82
2023/08/13 01:57:26;;;;;;;10.93;1.80;;;16.10;99.90;;;;;;5058414;28;20440;-82
2023/08/13 01:59:53;;;;;;;8.25;1.63;;;16.10;99.90;;;;;;5039713;28;20037;-81
2023/08/13 02:02:21;;;;;;;5.35;1.92;;;16.10;99.90;;;;;;5040254;28;20522;-82
2023/08/13 02:04:48;;;;;;;7.57;1.92;;;16.10;99.90;;;;;;5044723;28;20036;-81
2023/08/13 02:07:17;;;;;;;8.43;1.95;;;16.10;99.90;;;;;;5039545;28;20103;-82
2023/08/13 02:09:43;;;;;;;12.90;1.63;;;16.20;99.90;;;;;;5020519;28;20064;-82
2023/08/13 02:12:10;;;;;;;6.35;2.28;;;16.20;99.90;;;;;;5037677;28;20083;-83
2023/08/13 02:14:37;;;;;;;11.13;2.03;;;16.20;99.90;;;;;;5037065;28;20045;-82
2023/08/13 02:17:04;;;;;;;10.52;2.13;;;16.20;99.90;;;;;;5034239;28;20067;-82
2023/08/13 02:19:31;;;;;;;10.00;1.80;;;16.20;99.90;;;;;;5038429;28;20041;-82
2023/08/13 02:22:01;;;;;;;5.78;1.90;;;16.20;99.90;;;;;;5028641;28;20103;-82
2023/08/13 02:24:28;;;;;;;8.85;1.85;;;16.20;99.90;;;;;;5028192;28;20052;-82
2023/08/13 02:26:57;;;;;;;11.93;1.88;;;16.20;99.90;;;;;;5025952;28;20472;-82
2023/08/13 02:29:23;;;;;;;13.73;2.13;;;16.20;99.90;;;;;;5060045;28;20398;-82
2023/08/13 02:31:53;;;;;;;11.07;1.75;;;16.20;99.90;;;;;;5029748;28;20052;-82
2023/08/13 02:34:21;;;;;;;17.63;2.10;;;16.20;99.90;;;;;;5047265;28;20133;-82
2023/08/13 02:36:50;;;;;;;9.32;2.00;;;16.20;99.90;;;;;;5003766;28;20111;-82
2023/08/13 02:39:16;;;;;;;7.93;1.90;;;16.20;99.90;;;;;;5023715;28;20049;-82
2023/08/13 02:41:43;;;;;;;9.52;2.42;;;16.10;99.90;;;;;;5029759;28;20041;-81
2023/08/13 02:44:10;;;;;;;11.20;2.05;;;16.10;99.90;;;;;;5033856;28;20126;-82
2023/08/13 02:46:37;;;;;;;13.82;1.90;;;16.10;99.90;;;;;;5019250;28;20135;-82
2023/08/13 02:49:04;;;;;;;14.60;1.98;;;16.00;99.90;;;;;;5019649;28;20053;-82
2023/08/13 02:51:30;;;;;;;11.27;1.80;;;16.00;99.90;;;;;;5019725;28;20053;-82
2023/08/13 02:53:57;;;;;;;15.45;2.08;;;16.00;99.90;;;;;;5044468;28;20051;-81
2023/08/13 02:56:25;;;;;;;11.02;2.15;;;16.00;99.90;;;;;;5021746;28;20388;-82
2023/08/13 02:58:52;;;;;;;9.55;1.58;;;16.00;99.90;;;;;;5059927;28;20098;-82
2023/08/13 03:01:19;;;;;;;11.88;1.80;;;15.90;99.90;;;;;;5062061;28;20059;-82
2023/08/13 03:03:48;;;;;;;16.25;2.70;;;16.00;99.90;;;;;;5040351;28;20051;-81
2023/08/13 03:06:20;;;;;;;8.65;1.88;;;15.90;99.90;;;;;;5041214;28;20116;-82
2023/08/13 03:08:47;;;;;;;13.40;2.17;;;15.90;99.90;;;;;;5068293;28;20041;-82
2023/08/13 03:11:14;;;;;;;13.38;2.28;;;15.90;99.90;;;;;;5024315;28;20376;-82
2023/08/13 03:13:40;;;;;;;13.00;1.90;;;15.90;99.90;;;;;;5032675;28;20139;-82
2023/08/13 03:16:07;;;;;;;10.98;2.00;;;15.90;99.90;;;;;;5049985;28;20114;-82
2023/08/13 03:18:35;;;;;;;11.75;2.17;;;15.90;99.90;;;;;;5051403;28;20098;-82
2023/08/13 03:21:04;;;;;;;10.18;1.63;;;15.90;99.90;;;;;;5002465;28;20426;-82
2023/08/13 03:23:32;;;;;;;14.52;2.58;;;15.90;99.90;;;;;;5016866;28;20136;-81
2023/08/13 03:26:01;;;;;;;11.30;1.67;;;15.90;99.90;;;;;;5038160;28;20475;-82
2023/08/13 03:28:28;;;;;;;16.40;2.13;;;15.90;99.90;;;;;;5052054;28;20132;-81
2023/08/13 03:30:59;;;;;;;12.25;1.70;;;15.90;99.90;;;;;;5025586;28;20045;-82
2023/08/13 03:33:33;;;;;;;9.68;1.77;;;15.90;99.90;;;;;;5018470;28;20103;-81
2023/08/13 03:35:59;;;;;;;11.43;2.00;;;15.90;99.90;;;;;;5037084;28;20081;-81
2023/08/13 03:38:27;;;;;;;9.27;1.63;;;15.90;99.90;;;;;;5041078;28;20036;-81
2023/08/13 03:40:54;;;;;;;9.40;1.98;;;15.90;99.90;;;;;;5052846;28;20052;-81
2023/08/13 03:43:21;;;;;;;8.82;1.70;;;15.80;99.90;;;;;;5055905;28;20041;-81
2023/08/13 03:45:48;;;;;;;10.85;2.47;;;15.80;99.90;;;;;;5070356;28;20071;-81
2023/08/13 03:48:15;;;;;;;11.90;1.83;;;15.80;99.90;;;;;;5079577;28;20103;-81
2023/08/13 03:50:43;;;;;;;12.48;2.00;;;15.90;99.90;;;;;;5055517;28;20456;-81
2023/08/13 03:53:11;;;;;;;7.75;2.08;;;15.80;99.90;;;;;;5080401;28;20127;-81
2023/08/13 03:55:39;;;;;;;9.18;1.73;;;15.80;99.90;;;;;;5082111;28;20493;-81
2023/08/13 03:58:10;;;;;;;9.95;1.48;;;15.80;99.90;;;;;;5066148;28;20036;-81
2023/08/13 04:00:37;;;;;;;11.85;2.05;;;15.80;99.90;;;;;;5070500;28;20069;-81
2023/08/13 04:03:03;;;;;;;9.52;1.45;;;15.80;99.90;;;;;;5054887;28;20082;-81
2023/08/13 04:05:50;;;;;;;11.20;1.88;;;15.80;99.90;;;;;;5054117;28;20052;-81
2023/08/13 04:08:17;;;;;;;8.88;1.70;;;15.80;99.90;;;;;;5061083;28;20064;-81
2023/08/13 04:10:44;;;;;;;17.48;2.42;;;15.80;99.90;;;;;;5085743;28;20048;-81
2023/08/13 04:13:11;;;;;;;12.18;2.75;;;15.80;99.90;;;;;;5090784;28;20093;-80
2023/08/13 04:15:38;;;;;;;10.60;1.70;;;15.90;99.90;;;;;;5065676;28;20075;-81
2023/08/13 04:18:06;;;;;;;12.25;1.83;;;15.90;99.90;;;;;;5094685;28;20102;-83
2023/08/13 04:20:33;;;;;;;5.47;1.42;;;16.00;99.90;;;;;;5080019;28;20123;-80
2023/08/13 04:22:59;;;;;;;14.20;1.85;;;16.00;99.90;;;;;;5094573;28;20096;-81
2023/08/13 04:25:26;;;;;;;13.73;1.70;;;16.10;99.90;;;;;;5063844;28;20143;-82
2023/08/13 04:27:54;;;;;;;9.43;1.80;;;16.20;99.90;;;;;;5078234;28;20037;-82
2023/08/13 04:30:21;;;;;;;9.68;1.92;;;16.20;99.90;;;;;;5068719;28;20456;-81
2023/08/13 04:32:48;;;;;;;9.18;1.83;;;16.30;99.90;;;;;;5050074;28;20054;-81
2023/08/13 04:35:15;;;;;;;6.95;1.73;;;16.30;99.90;;;;;;5068586;28;20037;-81
2023/08/13 04:37:42;;;;;;;13.07;1.73;;;16.40;99.90;;;;;;5056546;28;20079;-81
2023/08/13 04:40:10;;;;;;;11.80;1.83;;;16.40;99.90;;;;;;5073646;28;20098;-82
2023/08/13 04:42:37;;;;;;;9.50;1.63;;;16.40;99.90;;;;;;5063217;28;20056;-81
2023/08/13 04:45:04;;;;;;;6.13;1.63;;;16.40;99.90;;;;;;5086104;28;20036;-82
2023/08/13 04:47:30;;;;;;;11.07;2.00;;;16.50;99.90;;;;;;5057696;28;20041;-81
2023/08/13 04:49:57;;;;;;;19.73;2.28;;;16.50;99.90;;;;;;5054249;28;20052;-82
2023/08/13 04:52:24;;;;;;;12.65;1.98;;;16.50;99.90;;;;;;5081388;28;20042;-80
2023/08/13 04:54:51;;;;;;;9.32;1.83;;;16.50;99.90;;;;;;5043573;28;20041;-82
2023/08/13 05:00:06;;;;;;;16.30;2.10;;;16.60;99.90;;;;;;5070174;28;20122;-81
2023/08/13 05:02:38;;;;;;;13.90;1.85;;;16.60;99.90;;;;;;5053704;28;20059;-81
2023/08/13 05:05:06;;;;;;;9.18;1.70;;;16.60;99.90;;;;;;5053817;28;20391;-81
2023/08/13 05:07:34;;;;;;;6.72;1.50;;;16.60;99.90;;;;;;5078692;28;20071;-81
2023/08/13 05:10:03;;;;;;;9.05;1.60;;;16.50;99.90;;;;;;5069459;28;20135;-81
2023/08/13 05:12:31;;;;;;;8.95;1.90;;;16.60;99.90;;;;;;5051889;28;20037;-82
2023/08/13 05:14:59;;;;;;;9.20;1.95;;;16.60;99.90;;;;;;5053590;28;20056;-81
2023/08/13 05:17:26;;;;;;;10.85;1.88;;;16.60;99.90;;;;;;5036993;28;20479;-81
2023/08/13 05:19:53;;;;;;;7.53;1.50;;;16.60;99.90;;;;;;5053632;28;20045;-81
2023/08/13 05:22:20;;;;;;;7.47;1.92;;;16.70;99.90;;;;;;5041308;28;20371;-81
2023/08/13 05:24:47;;;;;;;7.53;1.60;;;16.70;99.90;;;;;;5084762;28;20083;-81
2023/08/13 05:30:02;;;;;;;9.00;1.67;;;16.80;99.90;;;;;;5082711;28;20051;-82
2023/08/13 05:32:29;;;;;;;11.45;1.45;;;16.80;99.90;;;;;;5062401;28;20036;-81
2023/08/13 05:34:56;;;;;;;9.10;1.63;;;16.80;99.90;;;;;;5083357;28;20125;-81
2023/08/13 05:37:24;;;;;;;9.75;2.20;;;16.90;99.90;;;;;;5062236;28;20048;-81
2023/08/13 05:39:51;;;;;;;17.83;1.80;;;16.90;99.90;;;;;;5086176;28;20060;-81
2023/08/13 05:42:18;;;;;;;7.50;1.73;;;16.90;99.90;;;;;;5027859;28;20050;-81
2023/08/13 05:44:45;;;;;;;15.75;2.15;;;16.80;99.90;;;;;;5047751;28;20041;-82
2023/08/13 05:47:12;;;;;;;10.57;1.88;;;16.90;99.90;;;;;;5016382;28;20045;-81
2023/08/13 05:49:40;;;;;;;13.45;2.22;;;16.80;99.90;;;;;;5030878;28;20045;-81
2023/08/13 05:52:07;;;;;;;8.85;1.77;;;16.90;99.90;;;;;;5016641;28;20049;-81
2023/08/13 05:54:34;;;;;;;14.20;2.13;;;16.90;99.90;;;;;;5016161;28;20076;-81
2023/08/13 05:57:01;;;;;;;16.15;2.05;;;16.90;99.90;;;;;;5017420;28;20045;-80
2023/08/13 05:59:27;;;;;;;8.32;1.80;;;17.00;99.90;;;;;;5034123;28;20448;-80
2023/08/13 06:01:54;;;;;;;8.77;1.88;;;16.90;99.90;;;;;;5040002;28;20052;-81
2023/08/13 06:04:21;;;;;;;7.63;1.95;;;16.90;99.90;;;;;;5034140;28;20045;-80
2023/08/13 06:06:48;;;;;;;7.82;2.03;;;16.90;99.90;;;;;;5016271;28;20050;-80
2023/08/13 06:09:15;;;;;;;11.85;2.08;;;16.90;99.90;;;;;;5046933;28;20052;-80
2023/08/13 06:11:42;;;;;;;12.52;2.35;;;16.80;99.90;;;;;;5027457;28;20075;-80
2023/08/13 06:14:08;;;;;;;9.38;1.70;;;16.80;99.90;;;;;;5033650;28;20461;-80
2023/08/13 06:16:37;;;;;;;9.85;1.80;;;16.80;99.90;;;;;;5047351;28;20471;-81
2023/08/13 06:19:04;;;;;;;7.32;1.70;;;16.70;99.90;;;;;;5033638;28;20553;-80
2023/08/13 06:21:31;;;;;;;5.65;1.50;;;16.70;99.90;;;;;;5034402;28;20041;-80
2023/08/13 06:23:58;;;;;;;7.47;1.35;;;16.60;99.90;;;;;;5041382;28;20364;-80
2023/08/13 06:26:26;;;;;;;9.15;1.63;;;16.70;99.90;;;;;;5056757;28;20045;-80
2023/08/13 06:28:52;;;;;;;5.72;1.70;;;16.70;99.90;;;;;;5041587;28;20468;-81
2023/08/13 06:31:19;;;;;;;8.32;1.58;;;16.70;99.90;;;;;;5054830;28;20036;-81
2023/08/13 06:34:06;;;;;;;11.00;2.47;;;16.80;99.90;;;;;;5024529;28;20468;-82
2023/08/13 06:36:33;;;;;;;7.90;2.17;;;16.80;99.90;;;;;;5037404;28;20077;-81
2023/08/13 06:39:00;;;;;;;7.90;1.60;;;16.80;99.90;;;;;;5033497;28;20045;-81
2023/08/13 06:41:26;;;;;;;10.00;2.33;;;16.90;99.90;;;;;;5019802;28;20120;-81
2023/08/13 06:43:54;;;;;;;8.73;2.42;;;16.90;99.90;;;;;;5019937;28;20053;-80
2023/08/13 06:46:21;;;;;;;7.40;1.92;;;17.00;99.90;;;;;;5021432;28;20087;-82
2023/08/13 06:48:47;;;;;;;5.25;2.17;;;17.00;99.90;;;;;;5049636;28;20084;-82
2023/08/13 06:51:14;;;;;;;6.07;1.45;;;17.00;99.90;;;;;;5057157;28;20044;-81
2023/08/13 06:53:41;;;;;;;6.35;1.50;;;17.00;99.90;;;;;;5038570;28;20142;-81
2023/08/13 06:56:09;;;;;;;6.88;1.60;;;17.00;99.90;;;;;;5040418;28;20441;-81
2023/08/13 06:58:35;;;;;;;8.10;1.52;;;17.10;99.90;;;;;;5055348;28;20033;-81
2023/08/13 07:01:02;;;;;;;8.50;2.00;;;17.40;99.90;;;;;;5043908;28;20037;-83
2023/08/13 07:03:28;;;;;;;10.20;2.60;;;17.70;99.90;;;;;;5063905;28;20115;-81
2023/08/13 07:05:55;;;;;;;10.52;2.13;;;17.80;99.90;;;;;;5050908;28;20471;-81
2023/08/13 07:08:23;;;;;;;7.60;2.15;;;17.90;99.90;;;;;;5070509;28;20400;-81
2023/08/13 07:10:49;;;;;;;7.30;1.83;;;17.90;99.90;;;;;;5045272;28;20469;-80
2023/08/13 07:13:16;;;;;;;7.40;2.17;;;17.90;99.90;;;;;;5049841;28;20049;-80
2023/08/13 07:15:43;;;;;;;13.80;2.30;;;18.00;99.90;;;;;;5021857;28;20057;-81
2023/08/13 07:18:10;;;;;;;10.05;2.33;;;18.00;99.90;;;;;;5036940;28;20095;-81
2023/08/13 07:20:37;;;;;;;12.93;2.70;;;18.00;99.90;;;;;;5072673;28;20044;-80
2023/08/13 07:23:04;;;;;;;8.05;2.05;;;18.10;99.90;;;;;;5048771;28;20041;-80
2023/08/13 07:25:33;;;;;;;7.82;1.70;;;18.20;99.90;;;;;;5042742;28;20061;-81
2023/08/13 07:28:01;;;;;;;8.40;1.80;;;18.30;99.90;;;;;;5047477;28;20127;-80
2023/08/13 07:30:28;;;;;;;10.75;1.88;;;18.30;99.90;;;;;;5042457;28;20127;-81
2023/08/13 07:32:54;;;;;;;11.63;1.67;;;18.40;99.90;;;;;;5023608;28;20095;-82
2023/08/13 07:35:21;;;;;;;15.20;2.28;;;18.40;99.90;;;;;;5038823;28;20056;-82
2023/08/13 07:37:48;;;;;;;11.88;2.03;;;18.40;99.90;;;;;;5032917;28;20049;-82
2023/08/13 07:40:16;;;;;;;10.65;2.22;;;18.40;99.90;;;;;;5052437;28;20091;-80
2023/08/13 07:42:42;;;;;;;11.40;2.03;;;18.50;99.90;;;;;;5073016;28;20037;-82
2023/08/13 07:45:10;;;;;;;9.88;1.55;;;18.70;99.90;;;;;;5063585;28;20054;-82
2023/08/13 07:47:39;;;;;;;8.02;1.60;;;19.00;99.90;;;;;;5065144;28;21468;-80
2023/08/13 07:50:07;;;;;;;8.80;1.45;;;19.20;99.90;;;;;;5076091;28;20040;-81
2023/08/13 07:52:34;;;;;;;7.95;1.85;;;19.20;99.90;;;;;;5077051;28;20048;-80
2023/08/13 07:55:00;;;;;;;10.50;1.65;;;19.20;99.90;;;;;;5091906;28;20047;-81
2023/08/13 07:57:28;;;;;;;5.72;1.40;;;19.10;99.90;;;;;;5068570;28;20048;-82
2023/08/13 07:59:55;;;;;;;5.57;1.20;;;18.80;99.90;;;;;;5080927;28;20063;-81
2023/08/13 08:02:23;;;;;;;5.93;1.55;;;18.70;99.90;;;;;;5077210;28;20112;-82
2023/08/13 08:04:50;;;;;;;6.18;1.38;;;18.40;99.90;;;;;;5063644;28;20447;-81
2023/08/13 08:07:18;;;;;;;3.95;1.17;;;18.10;99.90;;;;;;5067185;28;20132;-82
2023/08/13 08:09:45;;;;;;;4.68;1.27;;;17.90;99.90;;;;;;5060702;28;20139;-83
2023/08/13 08:12:12;;;;;;;7.55;1.70;;;17.90;99.90;;;;;;5065299;28;20118;-83
2023/08/13 08:14:41;;;;;;;10.02;1.70;;;18.00;99.90;;;;;;5069393;28;20464;-83
2023/08/13 08:19:39;;;;;;;6.32;1.55;;;18.00;99.90;;;;;;5064404;28;20071;-82
2023/08/13 08:22:06;;;;;;;7.03;1.35;;;18.10;99.90;;;;;;5054062;28;20041;-83
2023/08/13 08:24:32;;;;;;;4.57;1.90;;;18.20;99.90;;;;;;5063952;28;20102;-82
2023/08/13 08:29:46;;;;;;;6.60;1.20;;;18.60;99.90;;;;;;5063617;28;20128;-83
2023/08/13 08:32:13;;;;;;;9.70;1.30;;;19.00;99.90;;;;;;5060414;28;20037;-86
2023/08/13 08:34:40;;;;;;;7.57;1.30;;;19.20;99.90;;;;;;5069620;28;20036;-82
2023/08/13 08:37:10;;;;;;;5.18;1.20;;;19.30;99.90;;;;;;5065979;28;20045;-82
2023/08/13 08:39:36;;;;;;;6.10;1.30;;;19.50;99.90;;;;;;5053224;28;20375;-86
2023/08/13 08:42:03;;;;;;;6.25;1.33;;;19.70;99.90;;;;;;5067029;28;20071;-85
2023/08/13 08:44:30;;;;;;;10.45;1.60;;;19.90;99.90;;;;;;5065350;28;20105;-84
2023/08/13 08:46:58;;;;;;;6.03;1.50;;;19.90;99.90;;;;;;5083064;28;20044;-86
2023/08/13 08:49:25;;;;;;;8.18;1.70;;;20.00;99.90;;;;;;5084992;28;20090;-86
2023/08/13 08:51:51;;;;;;;5.93;1.65;;;20.10;99.90;;;;;;5063690;28;20128;-85
2023/08/13 08:54:18;;;;;;;6.40;1.67;;;20.10;99.90;;;;;;5057585;28;20041;-85
2023/08/13 08:59:32;;;;;;;7.55;1.85;;;20.10;99.90;;;;;;5085591;28;20044;-83
2023/08/13 09:01:59;;;;;;;7.88;2.08;;;20.00;99.90;;;;;;5054788;28;20049;-84
2023/08/13 09:04:25;;;;;;;5.10;1.70;;;19.90;99.90;;;;;;5055770;28;20040;-86
2023/08/13 09:09:43;;;;;;;8.50;1.75;;;19.70;99.90;;;;;;5063044;28;20139;-84
2023/08/13 09:12:10;;;;;;;7.25;1.80;;;19.70;99.90;;;;;;5076165;28;20049;-83
2023/08/13 09:14:37;;;;;;;8.38;1.63;;;19.80;99.90;;;;;;5053882;28;20040;-87
2023/08/13 09:19:50;;;;;;;8.55;1.77;;;20.30;99.90;;;;;;5061148;28;20057;-84
2023/08/13 09:22:17;;;;;;;10.95;1.48;;;20.30;99.90;;;;;;5085683;28;20044;-85
2023/08/13 09:24:44;;;;;;;12.18;1.42;;;20.20;99.90;;;;;;5064417;28;20053;-84
2023/08/13 09:27:11;;;;;;;12.60;2.05;;;20.30;99.90;;;;;;5083371;28;20051;-84
2023/08/13 09:29:39;;;;;;;7.00;1.50;;;20.50;99.90;;;;;;5065775;28;20037;-84
2023/08/13 09:32:06;;;;;;;9.55;1.77;;;20.70;99.90;;;;;;5067287;28;20123;-83
2023/08/13 09:34:35;;;;;;;10.63;1.65;;;20.80;99.90;;;;;;5052745;28;20045;-85
2023/08/13 09:37:02;;;;;;;8.63;2.15;;;21.00;99.90;;;;;;5053383;28;20464;-84
2023/08/13 09:39:30;;;;;;;5.13;1.60;;;21.20;99.90;;;;;;5056454;28;20040;-83
2023/08/13 09:41:57;;;;;;;6.82;1.50;;;21.20;99.90;;;;;;5036994;28;20036;-84
2023/08/13 09:44:24;;;;;;;7.60;1.50;;;21.40;99.90;;;;;;5036185;28;20045;-83
2023/08/13 09:46:52;;;;;;;5.45;1.25;;;21.70;99.90;;;;;;5033551;28;20034;-84
2023/08/13 09:49:20;;;;;;;4.63;1.33;;;21.60;99.90;;;;;;5022621;28;20060;-84
2023/08/13 09:51:46;;;;;;;6.75;1.45;;;21.60;99.90;;;;;;5038747;28;20511;-84
2023/08/13 09:54:13;;;;;;;11.07;1.60;;;21.70;99.90;;;;;;5049528;28;20107;-84
2023/08/13 09:56:42;;;;;;;8.32;1.30;;;21.80;99.90;;;;;;5042654;28;20042;-84
2023/08/13 09:59:09;;;;;;;5.85;1.40;;;22.10;99.90;;;;;;5036642;28;20372;-83
2023/08/13 10:01:36;;;;;;;8.05;1.55;;;22.40;99.90;;;;;;5051953;28;20049;-84
2023/08/13 10:04:03;;;;;;;6.03;1.45;;;22.60;99.90;;;;;;5050048;28;20048;-84
2023/08/13 10:09:01;;;;;;;5.25;1.30;;;23.20;99.90;;;;;;5020710;28;20041;-85
2023/08/13 10:11:27;;;;;;;7.70;2.10;;;23.30;99.90;;;;;;5026676;28;20059;-84
2023/08/13 10:13:54;;;;;;;6.40;1.48;;;23.60;99.90;;;;;;5045601;28;20099;-84
2023/08/13 10:16:21;;;;;;;6.07;1.50;;;23.60;99.90;;;;;;5049139;28;20043;-84
2023/08/13 10:18:48;;;;;;;10.68;1.88;;;23.70;99.90;;;;;;5068339;28;20052;-85
2023/08/13 10:21:15;;;;;;;6.05;1.55;;;23.90;99.90;;;;;;5046336;28;20041;-84
2023/08/13 10:23:41;;;;;;;4.80;1.58;;;23.50;99.90;;;;;;5052660;28;20116;-85
2023/08/13 10:28:38;;;;;;;7.40;1.45;;;23.30;99.90;;;;;;5049377;28;20125;-85
2023/08/13 10:31:05;;;;;;;6.30;1.55;;;23.00;99.90;;;;;;5064743;28;20099;-86
2023/08/13 10:33:31;;;;;;;3.30;1.17;;;23.00;99.90;;;;;;5019307;28;20059;-85
2023/08/13 10:35:58;;;;;;;6.07;1.63;;;23.50;99.90;;;;;;5033967;28;20049;-84
2023/08/13 10:38:25;;;;;;;6.57;1.55;;;23.90;99.90;;;;;;5041943;28;20036;-85
2023/08/13 10:40:52;;;;;;;6.57;1.60;;;24.50;99.90;;;;;;5063587;28;20045;-85
2023/08/13 10:43:18;;;;;;;8.93;1.77;;;24.90;99.90;;;;;;5039570;28;20149;-85
2023/08/13 10:45:45;;;;;;;8.85;1.75;;;25.40;99.90;;;;;;5084746;28;20047;-83
2023/08/13 10:50:58;;;;;;;7.18;1.80;;;25.90;99.90;;;;;;5060736;28;20052;-84
2023/08/13 10:53:28;;;;;;;6.75;1.40;;;25.50;99.90;;;;;;5055556;28;20361;-85
2023/08/13 10:55:54;;;;;;;5.32;1.40;;;25.30;99.90;;;;;;5057018;28;20464;-85
2023/08/13 11:01:07;;;;;;;5.90;1.58;;;25.60;99.90;;;;;;5071067;28;20076;-85
2023/08/13 11:03:34;;;;;;;5.90;1.50;;;25.90;99.90;;;;;;5085178;28;20046;-85
2023/08/13 11:08:47;;;;;;;5.70;1.30;;;26.60;99.90;;;;;;5064786;28;20532;-84
2023/08/13 11:11:14;;;;;;;4.35;1.30;;;26.50;99.90;;;;;;5062457;28;20040;-85
2023/08/13 11:13:41;;;;;;;4.32;1.30;;;27.00;99.90;;;;;;5079257;28;20047;-84
2023/08/13 11:16:09;;;;;;;4.88;1.30;;;26.80;99.90;;;;;;5067271;28;20076;-84
2023/08/13 11:18:36;;;;;;;6.47;1.65;;;26.50;99.90;;;;;;5074122;28;20110;-85
2023/08/13 11:21:02;;;;;;;7.82;1.58;;;26.10;99.90;;;;;;5080172;28;20045;-84
2023/08/13 11:23:29;;;;;;;4.93;1.45;;;25.80;99.90;;;;;;5055641;28;20072;-84
2023/08/13 11:25:56;;;;;;;6.18;1.60;;;26.40;99.90;;;;;;5061025;28;20040;-85
2023/08/13 11:28:25;;;;;;;7.15;1.60;;;27.00;99.90;;;;;;5064227;28;20407;-85
2023/08/13 11:30:52;;;;;;;6.65;1.92;;;26.90;99.90;;;;;;5069400;28;20040;-84
2023/08/13 11:33:19;;;;;;;5.10;1.58;;;26.90;99.90;;;;;;5066173;28;20052;-85
2023/08/13 11:35:46;;;;;;;5.05;1.58;;;26.60;99.90;;;;;;5065220;28;20040;-85
2023/08/13 11:40:45;;;;;;;5.68;1.63;;;26.50;99.90;;;;;;5042124;28;20095;-86
2023/08/13 11:43:12;;;;;;;5.28;1.42;;;26.70;99.90;;;;;;5026758;28;20373;-85
2023/08/13 11:45:38;;;;;;;6.00;1.48;;;26.50;99.90;;;;;;5023874;28;20127;-84
2023/08/13 11:50:51;;;;;;;6.65;1.77;;;26.00;99.90;;;;;;5042949;28;20464;-85
2023/08/13 11:53:30;;;;;;;8.60;1.95;;;25.60;99.90;;;;;;5059665;28;20459;-84
2023/08/13 11:55:57;;;;;;;5.03;1.42;;;25.30;99.90;;;;;;5041288;28;20052;-85
2023/08/13 11:58:27;;;;;;;5.13;1.65;;;25.80;99.90;;;;;;5036882;28;20466;-83
2023/08/13 12:00:54;;;;;;;7.80;1.60;;;26.10;99.90;;;;;;5031936;28;20045;-84
2023/08/13 12:03:21;;;;;;;6.53;1.60;;;26.40;99.90;;;;;;5015772;28;20395;-84
2023/08/13 12:05:47;;;;;;;6.50;1.85;;;27.00;99.90;;;;;;5018609;28;20045;-84
2023/08/13 12:08:16;;;;;;;5.03;1.55;;;26.60;99.90;;;;;;5045311;28;20037;-85
2023/08/13 12:10:42;;;;;;;6.18;1.48;;;25.80;99.90;;;;;;5046473;28;20049;-85
2023/08/13 12:13:09;;;;;;;6.82;1.75;;;25.10;99.90;;;;;;5043320;28;20501;-85
2023/08/13 12:15:37;;;;;;;6.45;1.80;;;24.80;99.90;;;;;;5038794;28;20480;-85
2023/08/13 12:18:05;;;;;;;5.85;1.70;;;24.70;99.90;;;;;;5028714;28;20049;-85
2023/08/13 12:20:32;;;;;;;5.45;1.45;;;25.00;99.90;;;;;;5040219;28;20061;-85
2023/08/13 12:22:59;;;;;;;6.65;2.08;;;25.10;99.90;;;;;;5037634;28;20136;-85
2023/08/13 12:25:26;;;;;;;5.13;1.45;;;25.30;99.90;;;;;;5055331;28;20037;-85
2023/08/13 12:27:54;;;;;;;4.25;1.20;;;25.70;99.90;;;;;;5036924;28;20543;-85
2023/08/13 12:30:20;;;;;;;6.55;1.30;;;26.10;99.90;;;;;;5037603;28;20103;-85
2023/08/13 12:32:47;;;;;;;5.43;1.40;;;26.80;99.90;;;;;;5017114;28;20076;-85
2023/08/13 12:35:14;;;;;;;6.72;1.40;;;27.40;99.90;;;;;;5048342;28;20041;-87
2023/08/13 12:40:31;;;;;;;5.35;1.30;;;27.70;99.90;;;;;;5047409;28;20061;-87
2023/08/13 12:42:57;;;;;;;4.38;1.23;;;28.10;99.90;;;;;;5087344;28;20079;-90
2023/08/13 12:45:24;;;;;;;5.32;1.20;;;27.90;99.90;;;;;;5075024;28;20048;-88
2023/08/13 12:50:42;;;;;;;5.13;1.40;;;27.70;99.90;;;;;;5087209;28;20127;-86
2023/08/13 12:53:09;;;;;;;4.10;1.27;;;27.00;99.90;;;;;;5094613;28;20147;-90
2023/08/13 12:55:35;;;;;;;4.57;1.20;;;27.60;99.90;;;;;;5071346;28;20052;-86
2023/08/13 13:00:48;;;;;;;5.45;1.30;;;27.60;99.90;;;;;;5077797;28;20048;-86
2023/08/13 13:03:15;;;;;;;4.45;1.23;;;27.40;99.90;;;;;;5061556;28;20429;-85
2023/08/13 13:05:42;;;;;;;4.40;1.30;;;27.30;99.90;;;;;;5063077;28;20056;-87
2023/08/13 13:08:13;;;;;;;4.05;1.20;;;26.80;99.90;;;;;;5063441;28;20036;-85
2023/08/13 13:10:40;;;;;;;9.68;1.80;;;25.90;99.90;;;;;;5079509;28;20049;-84
2023/08/13 13:13:07;;;;;;;3.15;1.02;;;25.40;99.90;;;;;;5084497;28;20032;-86
2023/08/13 13:15:34;;;;;;;5.72;1.38;;;25.50;99.90;;;;;;5068162;28;20037;-83
2023/08/13 13:18:01;;;;;;;8.52;1.45;;;25.30;99.90;;;;;;5062222;28;20040;-84
2023/08/13 13:20:28;;;;;;;7.05;1.83;;;25.10;99.90;;;;;;5067918;28;20099;-85
2023/08/13 13:22:54;;;;;;;5.25;1.30;;;25.50;99.90;;;;;;5053481;28;20044;-85
2023/08/13 13:25:21;;;;;;;5.35;1.45;;;25.60;99.90;;;;;;5050990;28;20052;-84
2023/08/13 13:27:48;;;;;;;5.80;1.38;;;26.20;99.90;;;;;;5043711;28;20052;-84
2023/08/13 13:30:15;;;;;;;6.80;1.50;;;26.00;99.90;;;;;;5059976;28;20049;-82
2023/08/13 13:32:41;;;;;;;5.05;1.40;;;26.50;99.90;;;;;;5060064;28;20102;-86
2023/08/13 13:35:08;;;;;;;4.88;1.50;;;26.90;99.90;;;;;;5058568;28;20045;-83
2023/08/13 13:37:35;;;;;;;6.15;1.27;;;26.90;99.90;;;;;;5086692;28;20384;-85